createdAt,value
2023-02-24T00:00:35.157Z,100265.06
2023-02-24T00:03:05.943Z,100261.31
2023-02-24T00:05:49.947Z,100265.19
2023-02-24T00:08:16.779Z,100263.47
2023-02-24T00:10:49.918Z,100261.78
2023-02-24T00:13:22.214Z,100255.47
2023-02-24T00:16:10.515Z,100240.56
2023-02-24T00:18:37.266Z,100246.91
2023-02-24T00:21:09.998Z,100246.66
2023-02-24T00:23:38.309Z,100243.25
2023-02-24T00:26:10.871Z,100237.56
2023-02-24T00:28:47.104Z,100224.38
2023-02-24T00:31:24.614Z,100231.84
2023-02-24T00:33:56.844Z,100224.09
2023-02-24T00:36:25.297Z,100217.03
2023-02-24T00:39:10.122Z,100223.09
2023-02-24T00:41:52.077Z,100218.03
2023-02-24T00:44:18.918Z,100217.19
2023-02-24T00:46:48.887Z,100209.75
2023-02-24T00:49:24.514Z,100206.34
2023-02-24T00:51:55.512Z,100205.63
2023-02-24T00:54:32.368Z,100194.00
2023-02-24T00:57:08.195Z,100200.16
2023-02-24T00:59:37.161Z,100194.00
2023-02-24T01:02:09.986Z,100186.13
2023-02-24T01:04:37.774Z,100183.25
2023-02-24T01:07:10.556Z,100178.13
2023-02-24T01:09:46.757Z,100177.91
2023-02-24T01:12:32.224Z,100168.19
2023-02-24T01:15:03.085Z,100162.03
2023-02-24T01:17:35.754Z,100160.44
2023-02-24T01:20:15.965Z,100159.38
2023-02-24T01:22:56.775Z,100158.75
2023-02-24T01:25:26.212Z,100147.47
2023-02-24T01:27:54.094Z,100135.00
2023-02-24T01:30:22.306Z,100137.41
2023-02-24T01:32:49.319Z,100132.97
2023-02-24T01:35:22.270Z,100122.53
2023-02-24T01:37:53.295Z,100124.34
2023-02-24T01:40:21.621Z,100126.91
2023-02-24T01:42:49.652Z,100117.94
2023-02-24T01:45:25.007Z,100113.44
2023-02-24T01:47:57.117Z,100111.88
2023-02-24T01:50:26.969Z,100105.59
2023-02-24T01:53:03.677Z,100102.09
2023-02-24T01:55:51.350Z,100093.38
2023-02-24T01:58:28.540Z,100085.38
2023-02-24T02:01:00.679Z,100071.19
2023-02-24T02:03:35.246Z,100073.00
2023-02-24T02:06:12.584Z,100069.75
2023-02-24T02:08:48.539Z,100063.69
2023-02-24T02:11:23.598Z,100062.47
2023-02-24T02:14:00.519Z,100057.88
2023-02-24T02:17:44.920Z,100049.88
2023-02-24T02:21:26.298Z,100054.84
2023-02-24T02:24:19.464Z,100043.97
2023-02-24T02:27:29.952Z,100043.72
2023-02-24T02:30:07.085Z,100035.72
2023-02-24T02:33:24.670Z,100024.34
2023-02-24T02:36:50.786Z,100028.19
2023-02-24T02:39:59.045Z,100011.53
2023-02-24T02:42:50.338Z,100013.56
2023-02-24T02:45:59.097Z,100005.81
2023-02-24T02:49:04.606Z,99982.81
2023-02-24T02:51:57.362Z,99988.84
2023-02-24T02:54:51.900Z,99989.59
2023-02-24T02:57:32.085Z,99975.28
2023-02-24T03:00:29.254Z,99968.38
2023-02-24T03:03:13.005Z,99964.78
2023-02-24T03:06:04.638Z,99956.78
2023-02-24T03:08:44.157Z,99961.03
2023-02-24T03:11:20.480Z,99954.72
2023-02-24T03:13:56.008Z,99944.66
2023-02-24T03:16:27.764Z,99933.53
2023-02-24T03:19:06.260Z,99928.31
2023-02-24T03:22:06.184Z,99927.72
2023-02-24T03:24:43.474Z,99919.59
2023-02-24T03:27:28.806Z,99914.16
2023-02-24T03:30:15.651Z,99911.88
2023-02-24T03:33:19.976Z,99897.56
2023-02-24T03:35:51.120Z,99886.19
2023-02-24T03:38:24.438Z,99884.97
2023-02-24T03:40:56.624Z,99876.88
2023-02-24T03:43:46.950Z,99869.59
2023-02-24T03:46:17.385Z,99863.03
2023-02-24T03:49:06.252Z,99855.06
2023-02-24T03:51:33.864Z,99856.75
2023-02-24T03:55:06.422Z,99841.03
2023-02-24T03:58:02.353Z,99837.28
2023-02-24T04:01:10.918Z,99822.50
2023-02-24T04:04:27.263Z,99810.66
2023-02-24T04:07:26.376Z,99810.66
2023-02-24T04:10:31.580Z,99794.19
2023-02-24T04:13:38.948Z,99782.47
2023-02-24T04:16:28.929Z,99786.69
2023-02-24T04:19:16.551Z,99784.75
2023-02-24T04:21:56.095Z,99778.19
2023-02-24T04:24:30.830Z,99762.81
2023-02-24T04:27:04.439Z,99765.47
2023-02-24T04:29:52.285Z,99759.75
2023-02-24T04:32:29.480Z,99752.03
2023-02-24T04:35:11.974Z,99744.38
2023-02-24T04:37:51.666Z,99733.56
2023-02-24T04:40:28.351Z,99731.63
2023-02-24T04:42:58.588Z,99729.69
2023-02-24T04:45:30.372Z,99712.88
2023-02-24T04:48:02.154Z,99717.09
2023-02-24T04:50:40.502Z,99709.81
2023-02-24T04:53:19.480Z,99706.53
2023-02-24T04:55:48.992Z,99702.31
2023-02-24T04:58:22.116Z,99689.66
2023-02-24T05:00:55.917Z,99688.22
2023-02-24T05:03:28.226Z,99683.00
2023-02-24T05:06:00.072Z,99676.97
2023-02-24T05:08:30.821Z,99660.41
2023-02-24T05:11:03.860Z,99658.13
2023-02-24T05:13:46.890Z,99652.09
2023-02-24T05:16:17.978Z,99653.31
2023-02-24T05:18:44.985Z,99643.75
2023-02-24T05:21:35.746Z,99637.84
2023-02-24T05:24:06.792Z,99646.81
2023-02-24T05:26:45.351Z,99634.84
2023-02-24T05:29:13.173Z,99626.28
2023-02-24T05:31:46.285Z,99618.53
2023-02-24T05:34:19.215Z,99610.53
2023-02-24T05:36:46.576Z,99603.81
2023-02-24T05:39:19.426Z,99601.25
2023-02-24T05:41:49.899Z,99588.34
2023-02-24T05:44:23.293Z,99590.63
2023-02-24T05:47:00.194Z,99566.31
2023-02-24T05:49:33.803Z,99576.13
2023-02-24T05:52:10.581Z,99558.63
2023-02-24T05:54:45.264Z,99546.38
2023-02-24T05:57:20.904Z,99539.13
2023-02-24T05:59:54.163Z,99535.03
2023-02-24T06:02:27.635Z,99533.84
2023-02-24T06:04:58.979Z,99526.84
2023-02-24T06:07:34.116Z,99525.88
2023-02-24T06:10:04.845Z,99521.66
2023-02-24T06:12:35.295Z,99512.81
2023-02-24T06:15:07.494Z,99521.53
2023-02-24T06:17:37.553Z,99506.50
2023-02-24T06:20:15.676Z,99502.91
2023-02-24T06:22:45.195Z,99501.06
2023-02-24T06:25:14.168Z,99494.19
2023-02-24T06:27:43.981Z,99486.81
2023-02-24T06:30:12.145Z,99491.53
2023-02-24T06:32:43.649Z,99474.75
2023-02-24T06:35:12.777Z,99468.69
2023-02-24T06:37:41.958Z,99469.66
2023-02-24T06:40:19.704Z,99454.69
2023-02-24T06:42:57.061Z,99450.69
2023-02-24T06:45:26.263Z,99450.97
2023-02-24T06:47:56.779Z,99448.19
2023-02-24T06:50:23.626Z,99437.66
2023-02-24T06:53:00.878Z,99439.50
2023-02-24T06:55:28.754Z,99418.06
2023-02-24T06:58:04.616Z,99423.28
2023-02-24T07:00:56.705Z,99424.38
2023-02-24T07:03:41.715Z,99416.13
2023-02-24T07:06:27.847Z,99403.69
2023-02-24T07:08:58.242Z,99390.38
2023-02-24T07:11:28.006Z,99391.09
2023-02-24T07:13:58.637Z,99382.13
2023-02-24T07:16:29.642Z,99382.72
2023-02-24T07:19:11.115Z,99378.25
2023-02-24T07:21:52.779Z,99377.53
2023-02-24T07:24:32.853Z,99375.69
2023-02-24T07:27:09.471Z,99383.56
2023-02-24T07:29:37.826Z,99372.53
2023-02-24T07:32:10.314Z,99368.44
2023-02-24T07:34:43.580Z,99358.63
2023-02-24T07:37:12.319Z,99354.16
2023-02-24T07:39:43.234Z,99335.81
2023-02-24T07:42:14.664Z,99334.97
2023-02-24T07:44:46.577Z,99348.16
2023-02-24T07:47:15.804Z,99326.16
2023-02-24T07:49:48.268Z,99324.59
2023-02-24T07:52:16.066Z,99316.34
2023-02-24T07:54:45.441Z,99312.53
2023-02-24T07:57:13.739Z,99296.41
2023-02-24T07:59:47.255Z,99286.88
2023-02-24T08:02:18.514Z,99278.66
2023-02-24T08:04:51.580Z,99282.88
2023-02-24T08:07:25.237Z,99277.41
2023-02-24T08:10:14.125Z,99280.91
2023-02-24T08:12:47.633Z,99257.94
2023-02-24T08:15:17.738Z,99270.00
2023-02-24T08:17:47.423Z,99253.59
2023-02-24T08:20:15.851Z,99250.25
2023-02-24T08:22:52.995Z,99265.75
2023-02-24T08:25:35.304Z,99259.56
2023-02-24T08:28:13.705Z,99253.69
2023-02-24T08:30:47.695Z,99250.88
2023-02-24T08:33:23.324Z,99241.94
2023-02-24T08:36:02.199Z,99239.56
2023-02-24T08:38:44.530Z,99234.09
2023-02-24T08:41:20.891Z,99232.97
2023-02-24T08:43:49.272Z,99220.25
2023-02-24T08:46:36.914Z,99218.47
2023-02-24T08:49:14.625Z,99217.63
2023-02-24T08:52:02.486Z,99216.66
2023-02-24T08:54:31.892Z,99217.78
2023-02-24T08:57:08.239Z,99208.38
2023-02-24T08:59:49.900Z,99213.13
2023-02-24T09:02:29.676Z,99213.53
2023-02-24T09:05:13.025Z,99207.38
2023-02-24T09:07:54.711Z,99200.94
2023-02-24T09:10:22.095Z,99191.97
2023-02-24T09:12:49.264Z,99199.81
2023-02-24T09:15:22.534Z,99177.88
2023-02-24T09:18:01.343Z,99185.19
2023-02-24T09:20:28.263Z,99179.19
2023-02-24T09:23:12.713Z,99167.56
2023-02-24T09:25:49.521Z,99162.94
2023-02-24T09:28:27.062Z,99164.34
2023-02-24T09:31:04.857Z,99160.44
2023-02-24T09:33:52.177Z,99144.59
2023-02-24T09:36:30.423Z,99149.66
2023-02-24T09:39:17.690Z,99147.25
2023-02-24T09:41:54.856Z,99141.78
2023-02-24T09:44:50.707Z,99141.78
2023-02-24T09:47:57.534Z,99131.53
2023-02-24T10:41:03.199Z,99036.72
2023-02-24T10:43:56.559Z,99039.88
2023-02-24T11:41:38.466Z,98945.38
2023-02-24T11:44:28.223Z,98939.00
2023-02-24T11:47:10.267Z,98930.84
2023-02-24T11:50:43.097Z,98927.47
2023-02-24T11:54:00.593Z,98927.31
2023-02-24T11:56:38.376Z,98922.00
2023-02-24T12:00:05.425Z,98913.81
2023-02-24T12:03:07.427Z,98912.22
2023-02-24T12:05:51.637Z,98902.31
2023-02-24T12:08:37.788Z,98894.47
2023-02-24T12:11:43.601Z,98895.63
2023-02-24T12:15:12.730Z,98883.25
2023-02-24T12:18:15.275Z,98883.38
2023-02-24T12:21:09.150Z,98882.84
2023-02-24T12:23:46.702Z,98868.59
2023-02-24T12:26:21.983Z,98867.50
2023-02-24T12:29:16.176Z,98868.47
2023-02-24T12:32:25.457Z,98846.56
2023-02-24T12:35:34.117Z,98839.50
2023-02-24T12:38:48.952Z,98837.91
2023-02-24T12:41:58.110Z,98833.66
2023-02-24T12:45:12.008Z,98831.81
2023-02-24T12:48:44.723Z,98861.81
2023-02-24T12:51:43.726Z,98868.75
2023-02-24T12:54:36.666Z,98859.16
2023-02-24T12:57:45.352Z,98852.81
2023-02-24T13:00:47.442Z,98835.41
2023-02-24T13:03:49.584Z,98832.72
2023-02-24T13:07:12.399Z,98839.25
2023-02-24T13:10:11.200Z,98844.72
2023-02-24T13:13:24.063Z,98827.97
2023-02-24T13:16:05.240Z,98825.16
2023-02-24T13:18:46.936Z,98825.38
2023-02-24T13:21:24.784Z,98812.31
2023-02-24T13:25:07.042Z,98805.03
2023-02-24T13:28:44.522Z,98806.66
2023-02-24T13:35:15.086Z,98799.94
2023-02-24T13:38:30.207Z,98782.50
2023-02-24T13:41:26.514Z,98779.53
2023-02-24T13:44:23.382Z,98773.91
2023-02-24T13:48:02.744Z,98769.84
2023-02-24T13:51:28.440Z,98769.09
2023-02-24T13:55:01.756Z,98770.19
2023-02-24T13:58:31.042Z,98766.47
2023-02-24T14:01:19.247Z,98754.44
2023-02-24T14:04:15.348Z,98763.09
2023-02-24T14:07:19.714Z,98753.34
2023-02-24T14:10:00.711Z,98758.75
2023-02-24T14:12:35.229Z,98752.63
2023-02-24T14:15:09.142Z,98755.31
2023-02-24T14:17:37.726Z,98748.72
2023-02-24T14:20:17.910Z,98745.97
2023-02-24T14:23:01.972Z,98748.66
2023-02-24T14:28:28.944Z,98745.03
2023-02-24T14:31:14.513Z,98745.38
2023-02-24T14:33:45.856Z,98741.00
2023-02-24T14:36:28.994Z,98733.84
2023-02-24T14:39:23.910Z,98735.81
2023-02-24T14:42:13.491Z,98732.91
2023-02-24T14:44:57.274Z,98732.03
2023-02-24T14:47:43.841Z,98721.25
2023-02-24T14:50:27.198Z,98726.72
2023-02-24T14:53:20.324Z,98723.63
2023-02-24T14:55:55.900Z,98724.31
2023-02-24T14:59:17.073Z,98715.28
2023-02-24T15:01:58.293Z,98712.00
2023-02-24T15:04:47.427Z,98713.47
2023-02-24T15:07:25.144Z,98715.75
2023-02-24T15:09:55.393Z,98710.25
2023-02-24T15:12:46.376Z,98707.38
2023-02-24T15:15:32.349Z,98700.00
2023-02-24T15:18:25.199Z,98698.13
2023-02-24T15:21:12.530Z,98696.28
2023-02-24T15:23:49.066Z,98697.13
2023-02-24T15:26:35.179Z,98685.94
2023-02-24T15:29:28.269Z,98688.94
2023-02-24T15:32:19.325Z,98686.94
2023-02-24T15:34:57.330Z,98677.53
2023-02-24T15:37:33.184Z,98671.94
2023-02-24T15:40:29.245Z,98671.81
2023-02-24T15:43:16.015Z,98671.97
2023-02-24T15:45:45.369Z,98664.91
2023-02-24T15:48:33.815Z,98665.81
2023-02-24T15:51:07.386Z,98653.53
2023-02-24T15:53:37.169Z,98657.22
2023-02-24T15:56:20.381Z,98663.25
2023-02-24T15:58:52.723Z,98654.22
2023-02-24T16:01:21.895Z,98662.34
2023-02-24T16:03:49.683Z,98656.13
2023-02-24T16:06:24.787Z,98652.91
2023-02-24T16:09:03.304Z,98662.13
2023-02-24T16:11:47.917Z,98651.16
2023-02-24T16:14:18.115Z,98655.88
2023-02-24T16:16:48.409Z,98655.63
2023-02-24T16:19:16.476Z,98660.03
2023-02-24T16:21:46.409Z,98662.56
2023-02-24T16:24:21.238Z,98657.75
2023-02-24T16:26:51.363Z,98654.94
2023-02-24T16:29:18.230Z,98656.78
2023-02-24T16:31:45.242Z,98666.44
2023-02-24T16:34:23.794Z,98664.09
2023-02-24T16:36:52.933Z,98680.25
2023-02-24T16:39:19.659Z,98676.41
2023-02-24T16:41:56.962Z,98680.56
2023-02-24T16:44:26.790Z,98669.75
2023-02-24T16:46:54.880Z,98678.25
2023-02-24T16:49:22.279Z,98679.91
2023-02-24T16:51:57.609Z,98670.72
2023-02-24T16:54:29.452Z,98670.69
2023-02-24T16:57:02.293Z,98666.16
2023-02-24T16:59:28.966Z,98668.09
2023-02-24T17:01:59.610Z,98669.59
2023-02-24T17:04:26.585Z,98682.72
2023-02-24T17:06:53.334Z,98672.53
2023-02-24T17:09:20.184Z,98680.34
2023-02-24T17:11:53.831Z,98688.00
2023-02-24T17:14:21.136Z,98678.31
2023-02-24T17:16:50.463Z,98682.19
2023-02-24T17:19:26.164Z,98687.88
2023-02-24T17:22:01.802Z,98676.19
2023-02-24T17:24:31.560Z,98686.03
2023-02-24T17:26:59.827Z,98696.84
2023-02-24T17:29:32.519Z,98686.66
2023-02-24T17:31:59.419Z,98697.84
2023-02-24T17:34:27.655Z,98690.69
2023-02-24T17:36:57.250Z,98693.56
2023-02-24T17:39:24.052Z,98699.28
2023-02-24T17:41:55.522Z,98691.63
2023-02-24T17:44:25.156Z,98700.59
2023-02-24T17:46:52.234Z,98699.63
2023-02-24T17:49:19.517Z,98690.59
2023-02-24T17:51:52.488Z,98699.19
2023-02-24T17:54:19.383Z,98707.91
2023-02-24T17:56:50.191Z,98723.06
2023-02-24T18:46:20.236Z,98709.38
2023-02-24T19:04:59.756Z,98739.50
2023-02-24T19:07:29.230Z,98733.41
2023-02-24T19:12:46.221Z,98738.56
2023-02-24T19:20:34.950Z,98736.69
2023-02-24T20:25:52.122Z,98777.44
2023-02-24T20:28:21.119Z,98783.28
2023-02-24T20:30:51.404Z,98787.09
2023-02-24T20:33:19.225Z,98789.41
2023-02-24T20:35:47.482Z,98799.41
2023-02-24T20:38:14.715Z,98794.09
2023-02-24T20:40:55.504Z,98796.38
2023-02-24T20:43:22.303Z,98793.59
2023-02-24T20:45:49.132Z,98796.72
2023-02-24T20:48:15.937Z,98803.78
2023-02-24T20:50:42.987Z,98794.56
2023-02-24T20:53:09.741Z,98796.84
2023-02-24T20:55:36.541Z,98795.84
2023-02-24T20:58:03.621Z,98797.81
2023-02-24T21:00:30.703Z,98797.50
2023-02-24T21:02:58.117Z,98814.50
2023-02-24T21:05:27.563Z,98808.22
2023-02-24T21:07:54.391Z,98804.13
2023-02-24T21:10:25.952Z,98804.88
2023-02-24T21:12:52.899Z,98815.72
2023-02-24T21:15:21.806Z,98804.00
2023-02-24T21:17:49.212Z,98808.13
2023-02-24T21:20:22.228Z,98808.19
2023-02-24T21:22:48.980Z,98815.94
2023-02-24T21:25:19.706Z,98822.56
2023-02-24T21:27:48.404Z,98833.78
2023-02-24T21:30:18.412Z,98835.50
2023-02-24T21:32:45.355Z,98828.22
2023-02-24T21:35:12.356Z,98836.19
2023-02-24T21:37:39.969Z,98838.69
2023-02-24T21:40:11.517Z,98847.94
2023-02-24T21:42:50.001Z,98838.31
2023-02-24T21:45:22.275Z,98847.81
2023-02-24T21:47:49.453Z,98861.81
2023-02-24T21:50:20.721Z,98863.97
2023-02-24T21:52:49.175Z,98865.06
2023-02-24T21:55:23.385Z,98863.44
2023-02-24T21:57:50.349Z,98874.09
2023-02-24T22:00:22.667Z,98877.75
2023-02-24T22:02:54.673Z,98868.66
2023-02-24T22:05:26.195Z,98881.56
2023-02-24T22:07:53.105Z,98876.09
2023-02-24T22:10:24.473Z,98867.28
2023-02-24T22:12:56.795Z,98880.59
2023-02-24T22:15:23.555Z,98887.16
2023-02-24T22:17:50.466Z,98883.22
2023-02-24T22:20:17.165Z,98882.69
2023-02-24T22:22:47.154Z,98884.22
2023-02-24T22:25:16.232Z,98902.84
2023-02-24T22:27:43.195Z,98909.00
2023-02-24T22:30:11.732Z,98903.81
2023-02-24T22:32:38.640Z,98916.16
2023-02-24T22:35:07.306Z,98901.16
2023-02-24T22:37:34.180Z,98913.75
2023-02-24T22:40:00.946Z,98919.25
2023-02-24T22:42:27.847Z,98923.59
2023-02-24T22:45:00.367Z,98913.66
2023-02-24T22:47:27.614Z,98910.13
2023-02-24T22:49:54.445Z,98920.25
2023-02-24T22:52:32.908Z,98922.34
2023-02-24T22:55:04.011Z,98919.25
2023-02-24T22:57:34.002Z,98924.13
2023-02-24T23:00:01.027Z,98929.88
2023-02-24T23:02:30.675Z,98945.13
2023-02-24T23:04:57.481Z,98938.31
2023-02-24T23:07:24.383Z,98931.56
2023-02-24T23:09:52.949Z,98946.38
2023-02-24T23:12:24.313Z,98942.50
2023-02-24T23:14:50.954Z,98951.19
2023-02-24T23:17:17.644Z,98943.03
2023-02-24T23:19:44.477Z,98953.00
2023-02-24T23:22:11.090Z,98950.19
2023-02-24T23:24:37.862Z,98945.31
2023-02-24T23:27:06.083Z,98955.50
2023-02-24T23:29:32.845Z,98969.25
2023-02-24T23:31:59.706Z,98979.72
2023-02-24T23:34:26.662Z,98976.09
2023-02-24T23:36:56.636Z,98980.16
2023-02-24T23:39:26.441Z,98975.56
2023-02-24T23:41:57.464Z,98988.16
2023-02-24T23:44:30.164Z,98986.03
2023-02-24T23:47:00.013Z,98992.19
2023-02-24T23:49:33.616Z,99001.88
2023-02-24T23:52:11.863Z,99001.44
2023-02-24T23:54:38.920Z,99007.75
2023-02-24T23:57:05.713Z,99007.88
2023-02-24T23:59:32.740Z,99009.59
